Time,TemperatureF,DewpointF,PressureIn,WindDirection,WindDirectionDegrees,WindSpeedMPH,WindSpeedGustMPH,Humidity,HourlyPrecipIn,Conditions,Clouds,dailyrainin,SoftwareType,DateUTC
2013-02-05 00:00:00,9.7,3.4,29.93,SW,223,2.0,4.0,75,0.00,,,0.00,VWS V14.01,2013-02-05 06:00:00,
2013-02-05 00:01:00,9.8,3.5,29.92,SW,224,2.0,4.0,75,0.00,,BKN170,0.00,VWS V14.01,2013-02-05 06:01:00,
2013-02-05 00:05:00,9.8,3.5,29.92,SW,225,0.0,3.0,75,0.00,,,0.00,VWS V14.01,2013-02-05 06:05:00,
2013-02-05 00:06:00,9.8,3.2,29.92,SW,225,0.0,4.0,74,0.00,,BKN170,0.00,VWS V14.01,2013-02-05 06:06:00,
2013-02-05 00:10:00,9.8,3.2,29.92,SW,225,2.0,4.0,74,0.00,,,0.00,VWS V14.01,2013-02-05 06:10:00,
2013-02-05 00:11:00,9.9,3.3,29.92,SW,231,2.0,4.0,74,0.00,,BKN170,0.00,VWS V14.01,2013-02-05 06:11:00,
2013-02-05 00:15:00,9.8,3.2,29.92,SW,229,3.0,5.0,74,0.00,,,0.00,VWS V14.01,2013-02-05 06:15:00,
2013-02-05 00:16:00,9.8,3.2,29.92,SW,231,1.0,5.0,74,0.00,,BKN170,0.00,VWS V14.01,2013-02-05 06:16:00,
2013-02-05 00:20:00,9.7,3.4,29.92,SW,231,0.0,4.0,75,0.00,,,0.00,VWS V14.01,2013-02-05 06:20:00,
2013-02-05 00:21:00,9.6,3.3,29.92,SW,229,0.0,4.0,75,0.00,,BKN170,0.00,VWS V14.01,2013-02-05 06:21:00,
2013-02-05 00:25:00,9.7,3.4,29.92,SW,229,0.0,2.0,75,0.00,,,0.00,VWS V14.01,2013-02-05 06:25:00,
2013-02-05 00:26:00,9.7,3.4,29.92,SW,231,1.0,2.0,75,0.00,,BKN170,0.00,VWS V14.01,2013-02-05 06:26:00,
2013-02-05 00:30:00,9.6,3.3,29.92,SW,232,0.0,3.0,75,0.00,,,0.00,VWS V14.01,2013-02-05 06:30:00,
2013-02-05 00:31:00,9.6,3.3,29.91,SW,232,2.0,3.0,75,0.00,,BKN170,0.00,VWS V14.01,2013-02-05 06:31:00,
2013-02-05 00:35:00,9.6,3.3,29.91,SW,234,3.0,3.0,75,0.00,,,0.00,VWS V14.01,2013-02-05 06:35:00,
2013-02-05 00:36:00,9.5,3.2,29.91,SW,234,2.0,3.0,75,0.00,,BKN170,0.00,VWS V14.01,2013-02-05 06:36:00,
2013-02-05 00:40:00,9.4,3.4,29.91,SW,226,1.0,3.0,76,0.00,,,0.00,VWS V14.01,2013-02-05 06:40:00,
2013-02-05 00:41:00,9.4,3.4,29.91,SW,227,2.0,3.0,76,0.00,,BKN170,0.00,VWS V14.01,2013-02-05 06:41:00,
2013-02-05 00:45:00,9.3,3.3,29.91,SW,227,1.0,3.0,76,0.00,,,0.00,VWS V14.01,2013-02-05 06:45:00,
2013-02-05 00:46:00,9.2,3.2,29.91,SW,227,2.0,3.0,76,0.00,,BKN170,0.00,VWS V14.01,2013-02-05 06:46:00,
2013-02-05 00:50:00,9.1,3.1,29.91,SW,227,1.0,2.0,76,0.00,,,0.00,VWS V14.01,2013-02-05 06:50:00,
2013-02-05 00:52:00,9.1,3.1,29.91,WSW,239,0.0,3.0,76,0.00,,BKN170,0.00,VWS V14.01,2013-02-05 06:52:00,
2013-02-05 00:55:00,9.1,3.1,29.91,WSW,238,1.0,3.0,76,0.00,,,0.00,VWS V14.01,2013-02-05 06:55:00,
2013-02-05 00:57:00,9.1,3.1,29.91,SW,218,1.0,3.0,76,0.00,,BKN170,0.00,VWS V14.01,2013-02-05 06:57:00,
2013-02-05 01:00:00,9.1,3.1,29.90,SW,218,2.0,3.0,76,0.00,,,0.00,VWS V14.01,2013-02-05 07:00:00,
2013-02-05 01:02:00,9.0,3.0,29.91,SW,219,1.0,3.0,76,0.00,,BKN220,0.00,VWS V14.01,2013-02-05 07:02:00,
2013-02-05 01:05:00,9.0,3.0,29.90,SW,223,1.0,3.0,76,0.00,,,0.00,VWS V14.01,2013-02-05 07:05:00,
2013-02-05 01:07:00,8.9,3.2,29.90,SW,233,2.0,4.0,77,0.00,,BKN220,0.00,VWS V14.01,2013-02-05 07:07:00,
2013-02-05 01:10:00,8.8,3.1,29.90,SW,229,1.0,4.0,77,0.00,,,0.00,VWS V14.01,2013-02-05 07:10:00,
2013-02-05 01:12:00,8.7,3.0,29.90,SW,229,0.0,2.0,77,0.00,,BKN220,0.00,VWS V14.01,2013-02-05 07:12:00,
2013-02-05 01:15:00,8.6,2.9,29.90,SW,235,3.0,3.0,77,0.00,,,0.00,VWS V14.01,2013-02-05 07:15:00,
2013-02-05 01:17:00,8.5,2.5,29.90,SW,234,2.0,3.0,76,0.00,,BKN220,0.00,VWS V14.01,2013-02-05 07:17:00,
2013-02-05 01:20:00,8.4,2.7,29.90,SW,236,0.0,3.0,77,0.00,,,0.00,VWS V14.01,2013-02-05 07:20:00,
2013-02-05 01:22:00,8.4,2.7,29.90,WSW,237,0.0,3.0,77,0.00,,BKN220,0.00,VWS V14.01,2013-02-05 07:22:00,
2013-02-05 01:25:00,8.4,2.7,29.90,WSW,238,0.0,2.0,77,0.00,,,0.00,VWS V14.01,2013-02-05 07:25:00,
2013-02-05 01:27:00,8.4,2.7,29.90,WSW,238,2.0,2.0,77,0.00,,BKN220,0.00,VWS V14.01,2013-02-05 07:27:00,
2013-02-05 01:30:00,8.3,2.6,29.90,WSW,238,0.0,2.0,77,0.00,,,0.00,VWS V14.01,2013-02-05 07:30:00,
2013-02-05 01:32:00,8.2,2.5,29.90,WSW,252,3.0,4.0,77,0.00,,BKN220,0.00,VWS V14.01,2013-02-05 07:32:00,
2013-02-05 01:35:00,8.0,2.3,29.90,West,261,2.0,4.0,77,0.00,,,0.00,VWS V14.01,2013-02-05 07:35:00,
2013-02-05 01:37:00,7.9,2.2,29.90,West,263,0.0,3.0,77,0.00,,BKN220,0.00,VWS V14.01,2013-02-05 07:37:00,
2013-02-05 01:40:00,7.9,2.5,29.90,West,261,0.0,3.0,78,0.00,,,0.00,VWS V14.01,2013-02-05 07:40:00,
2013-02-05 01:42:00,7.8,2.4,29.90,WSW,257,0.0,3.0,78,0.00,,BKN220,0.00,VWS V14.01,2013-02-05 07:42:00,
2013-02-05 01:45:00,7.8,2.4,29.89,WSW,255,0.0,3.0,78,0.00,,,0.00,VWS V14.01,2013-02-05 07:45:00,
2013-02-05 01:47:00,7.8,2.4,29.89,WSW,254,0.0,3.0,78,0.00,,BKN220,0.00,VWS V14.01,2013-02-05 07:47:00,
2013-02-05 01:50:00,7.8,2.4,29.89,WSW,254,2.0,2.0,78,0.00,,,0.00,VWS V14.01,2013-02-05 07:50:00,
2013-02-05 01:52:00,7.9,2.5,29.89,WSW,251,2.0,4.0,78,0.00,,BKN220,0.00,VWS V14.01,2013-02-05 07:52:00,
2013-02-05 01:55:00,7.8,2.4,29.89,SW,236,1.0,5.0,78,0.00,,,0.00,VWS V14.01,2013-02-05 07:55:00,
2013-02-05 01:57:00,7.8,2.4,29.89,WSW,238,2.0,5.0,78,0.00,,BKN220,0.00,VWS V14.01,2013-02-05 07:57:00,
2013-02-05 02:00:00,7.8,2.4,29.89,WSW,237,1.0,3.0,78,0.00,,,0.00,VWS V14.01,2013-02-05 08:00:00,
2013-02-05 02:02:00,7.7,2.6,29.89,WSW,238,0.0,2.0,79,0.00,,SCT220,0.00,VWS V14.01,2013-02-05 08:02:00,
2013-02-05 02:05:00,7.7,2.3,29.89,WSW,238,0.0,2.0,78,0.00,,,0.00,VWS V14.01,2013-02-05 08:05:00,
2013-02-05 02:08:00,7.7,2.6,29.89,WSW,238,0.0,2.0,79,0.00,,SCT220,0.00,VWS V14.01,2013-02-05 08:08:00,
2013-02-05 02:10:00,7.6,2.5,29.89,WSW,238,0.0,2.0,79,0.00,,,0.00,VWS V14.01,2013-02-05 08:10:00,
2013-02-05 02:13:00,7.6,2.5,29.89,WSW,238,0.0,2.0,79,0.00,,SCT220,0.00,VWS V14.01,2013-02-05 08:13:00,
2013-02-05 02:15:00,7.6,2.5,29.88,WSW,238,2.0,3.0,79,0.00,,,0.00,VWS V14.01,2013-02-05 08:15:00,
2013-02-05 02:18:00,7.5,2.4,29.88,WSW,238,2.0,2.0,79,0.00,,SCT220,0.00,VWS V14.01,2013-02-05 08:18:00,
2013-02-05 02:20:00,7.5,2.4,29.88,WSW,239,1.0,2.0,79,0.00,,,0.00,VWS V14.01,2013-02-05 08:20:00,
2013-02-05 02:23:00,7.5,2.4,29.88,WSW,240,0.0,2.0,79,0.00,,SCT220,0.00,VWS V14.01,2013-02-05 08:23:00,
2013-02-05 02:25:00,7.5,2.4,29.88,WSW,239,1.0,3.0,79,0.00,,,0.00,VWS V14.01,2013-02-05 08:25:00,
2013-02-05 02:28:00,7.6,2.5,29.88,WSW,239,0.0,2.0,79,0.00,,SCT220,0.00,VWS V14.01,2013-02-05 08:28:00,
2013-02-05 02:30:00,7.6,2.5,29.88,WSW,238,0.0,3.0,79,0.00,,,0.00,VWS V14.01,2013-02-05 08:30:00,
2013-02-05 02:33:00,7.3,2.2,29.87,WSW,238,1.0,3.0,79,0.00,,SCT220,0.00,VWS V14.01,2013-02-05 08:33:00,
2013-02-05 02:35:00,7.2,2.1,29.87,WSW,238,0.0,3.0,79,0.00,,,0.00,VWS V14.01,2013-02-05 08:35:00,
2013-02-05 02:38:00,7.0,1.9,29.87,WSW,238,0.0,3.0,79,0.00,,SCT220,0.00,VWS V14.01,2013-02-05 08:38:00,
2013-02-05 02:40:00,7.0,1.9,29.87,WSW,242,0.0,2.0,79,0.00,,,0.00,VWS V14.01,2013-02-05 08:40:00,
2013-02-05 02:43:00,7.0,2.2,29.87,WSW,239,0.0,3.0,80,0.00,,SCT220,0.00,VWS V14.01,2013-02-05 08:43:00,
2013-02-05 02:45:00,7.0,2.2,29.87,WSW,239,0.0,3.0,80,0.00,,,0.00,VWS V14.01,2013-02-05 08:45:00,
2013-02-05 02:48:00,6.9,2.0,29.87,SW,236,1.0,3.0,80,0.00,,SCT220,0.00,VWS V14.01,2013-02-05 08:48:00,
2013-02-05 02:50:00,6.8,2.0,29.87,SW,236,1.0,3.0,80,0.00,,,0.00,VWS V14.01,2013-02-05 08:50:00,
2013-02-05 02:53:00,6.6,1.8,29.87,SW,228,1.0,2.0,80,0.00,,SCT220,0.00,VWS V14.01,2013-02-05 08:53:00,
2013-02-05 02:55:00,6.5,1.7,29.87,SW,227,2.0,3.0,80,0.00,,,0.00,VWS V14.01,2013-02-05 08:55:00,
2013-02-05 02:58:00,6.4,1.6,29.86,SW,229,1.0,4.0,80,0.00,,SCT220,0.00,VWS V14.01,2013-02-05 08:58:00,
2013-02-05 03:00:00,6.4,1.6,29.86,SW,231,0.0,4.0,80,0.00,,,0.00,VWS V14.01,2013-02-05 09:00:00,
2013-02-05 03:03:00,6.5,1.9,29.86,SW,227,1.0,3.0,81,0.00,,FEW250,0.00,VWS V14.01,2013-02-05 09:03:00,
2013-02-05 03:05:00,6.5,1.9,29.86,SW,228,3.0,3.0,81,0.00,,,0.00,VWS V14.01,2013-02-05 09:05:00,
2013-02-05 03:08:00,6.7,2.1,29.86,SW,231,2.0,3.0,81,0.00,,FEW250,0.00,VWS V14.01,2013-02-05 09:08:00,
2013-02-05 03:10:00,6.7,2.1,29.86,SW,234,1.0,3.0,81,0.00,,,0.00,VWS V14.01,2013-02-05 09:10:00,
2013-02-05 03:13:00,7.0,2.4,29.86,SW,236,0.0,5.0,81,0.00,,FEW250,0.00,VWS V14.01,2013-02-05 09:13:00,
2013-02-05 03:15:00,7.1,2.5,29.86,SW,236,0.0,5.0,81,0.00,,,0.00,VWS V14.01,2013-02-05 09:15:00,
2013-02-05 03:18:00,7.3,2.7,29.86,SW,233,0.0,2.0,81,0.00,,FEW250,0.00,VWS V14.01,2013-02-05 09:18:00,
2013-02-05 03:20:00,7.3,2.7,29.86,West,259,0.0,3.0,81,0.00,,FEW070,0.00,VWS V14.01,2013-02-05 09:20:00,
2013-02-05 03:24:00,7.3,2.7,29.86,SW,233,0.0,2.0,81,0.00,,FEW250,0.00,VWS V14.01,2013-02-05 09:24:00,
2013-02-05 03:25:00,7.3,2.7,29.86,SW,233,0.0,2.0,81,0.00,,,0.00,VWS V14.01,2013-02-05 09:25:00,
2013-02-05 03:29:00,7.3,2.4,29.86,SW,233,0.0,2.0,80,0.00,,FEW250,0.00,VWS V14.01,2013-02-05 09:29:00,
2013-02-05 03:30:00,7.6,2.7,29.85,West,259,1.0,8.0,80,0.00,,FEW070,0.00,VWS V14.01,2013-02-05 09:30:00,
2013-02-05 03:34:00,7.3,2.4,29.86,WSW,258,1.0,4.0,80,0.00,,FEW250,0.00,VWS V14.01,2013-02-05 09:34:00,
2013-02-05 03:35:00,7.9,3.0,29.86,SW,227,2.0,6.0,80,0.00,,FEW070,0.00,VWS V14.01,2013-02-05 09:35:00,
2013-02-05 03:39:00,6.8,2.0,29.86,West,266,0.0,5.0,80,0.00,,FEW250,0.00,VWS V14.01,2013-02-05 09:39:00,
2013-02-05 03:40:00,6.8,2.0,29.86,West,266,3.0,5.0,80,0.00,,,0.00,VWS V14.01,2013-02-05 09:40:00,
2013-02-05 03:44:00,6.8,2.2,29.86,West,269,1.0,5.0,81,0.00,,FEW250,0.00,VWS V14.01,2013-02-05 09:44:00,
2013-02-05 03:45:00,6.8,2.2,29.86,West,269,0.0,3.0,81,0.00,,,0.00,VWS V14.01,2013-02-05 09:45:00,
2013-02-05 03:49:00,6.9,2.3,29.86,West,269,0.0,2.0,81,0.00,,FEW250,0.00,VWS V14.01,2013-02-05 09:49:00,
2013-02-05 03:50:00,6.9,2.3,29.86,West,269,0.0,2.0,81,0.00,,,0.00,VWS V14.01,2013-02-05 09:50:00,
2013-02-05 03:54:00,7.1,2.5,29.86,West,269,0.0,2.0,81,0.00,,FEW250,0.00,VWS V14.01,2013-02-05 09:54:00,
2013-02-05 03:55:00,7.2,2.6,29.86,West,269,2.0,2.0,81,0.00,,,0.00,VWS V14.01,2013-02-05 09:55:00,
2013-02-05 03:59:00,7.3,2.7,29.86,West,269,1.0,3.0,81,0.00,,FEW250,0.00,VWS V14.01,2013-02-05 09:59:00,
2013-02-05 04:00:00,7.3,2.7,29.86,West,269,0.0,3.0,81,0.00,,,0.00,VWS V14.01,2013-02-05 10:00:00,
2013-02-05 04:04:00,7.5,2.9,29.86,West,269,2.0,2.0,81,0.00,,BKN170,0.00,VWS V14.01,2013-02-05 10:04:00,
2013-02-05 04:05:00,7.5,2.9,29.86,West,269,2.0,2.0,81,0.00,,,0.00,VWS V14.01,2013-02-05 10:05:00,
2013-02-05 04:09:00,7.3,2.4,29.86,West,269,1.0,5.0,80,0.00,,BKN170,0.00,VWS V14.01,2013-02-05 10:09:00,
2013-02-05 04:10:00,7.3,2.4,29.86,West,269,0.0,5.0,80,0.00,,,0.00,VWS V14.01,2013-02-05 10:10:00,
2013-02-05 04:14:00,7.2,2.3,29.86,West,273,1.0,4.0,80,0.00,,BKN170,0.00,VWS V14.01,2013-02-05 10:14:00,
2013-02-05 04:15:00,7.2,2.3,29.86,West,273,1.0,4.0,80,0.00,,,0.00,VWS V14.01,2013-02-05 10:15:00,
2013-02-05 04:19:00,7.3,2.7,29.86,West,259,0.0,3.0,81,0.00,,BKN170,0.00,VWS V14.01,2013-02-05 10:19:00,
2013-02-05 04:20:00,7.3,2.7,29.86,West,259,0.0,3.0,81,0.00,,,0.00,VWS V14.01,2013-02-05 10:20:00,
2013-02-05 04:24:00,7.4,2.8,29.86,SW,221,0.0,4.0,81,0.00,,BKN170,0.00,VWS V14.01,2013-02-05 10:24:00,
2013-02-05 04:25:00,7.4,2.8,29.86,SW,221,0.0,4.0,81,0.00,,,0.00,VWS V14.01,2013-02-05 10:25:00,
2013-02-05 04:29:00,7.6,2.7,29.85,West,259,1.0,8.0,80,0.00,,BKN170,0.00,VWS V14.01,2013-02-05 10:29:00,
2013-02-05 04:30:00,7.6,2.7,29.85,West,259,1.0,8.0,80,0.00,,,0.00,VWS V14.01,2013-02-05 10:30:00,
2013-02-05 04:34:00,7.9,3.0,29.86,SW,227,2.0,6.0,80,0.00,,BKN170,0.00,VWS V14.01,2013-02-05 10:34:00,
2013-02-05 04:35:00,7.9,3.0,29.86,SW,227,2.0,6.0,80,0.00,,,0.00,VWS V14.01,2013-02-05 10:35:00,
2013-02-05 04:39:00,8.0,3.1,29.86,West,261,0.0,7.0,80,0.00,,BKN170,0.00,VWS V14.01,2013-02-05 10:39:00,
2013-02-05 04:40:00,8.0,3.1,29.86,West,261,0.0,7.0,80,0.00,,,0.00,VWS V14.01,2013-02-05 10:40:00,
2013-02-05 04:44:00,8.2,3.3,29.85,SW,236,1.0,7.0,80,0.00,,BKN170,0.00,VWS V14.01,2013-02-05 10:44:00,
2013-02-05 04:45:00,8.2,3.3,29.85,SW,236,1.0,7.0,80,0.00,,,0.00,VWS V14.01,2013-02-05 10:45:00,
2013-02-05 04:49:00,8.4,3.5,29.85,WSW,242,5.0,9.0,80,0.00,,BKN170,0.00,VWS V14.01,2013-02-05 10:49:00,
2013-02-05 04:50:00,12.1,5.4,29.84,South,188,2.0,6.0,74,0.00,,FEW070,0.00,VWS V14.01,2013-02-05 10:50:00,
2013-02-05 04:54:00,8.7,3.5,29.85,SW,233,4.0,9.0,79,0.00,,BKN170,0.00,VWS V14.01,2013-02-05 10:54:00,
2013-02-05 04:55:00,8.7,3.5,29.85,SW,233,4.0,9.0,79,0.00,,,0.00,VWS V14.01,2013-02-05 10:55:00,
2013-02-05 04:59:00,9.3,4.1,29.85,SW,218,3.0,8.0,79,0.00,,BKN170,0.00,VWS V14.01,2013-02-05 10:59:00,
2013-02-05 05:00:00,9.3,4.1,29.85,SW,218,3.0,8.0,79,0.00,,,0.00,VWS V14.01,2013-02-05 11:00:00,
2013-02-05 05:05:00,10.0,4.5,29.85,SW,221,1.0,6.0,78,0.00,,BKN110,0.00,VWS V14.01,2013-02-05 11:05:00,
2013-02-05 05:10:00,10.5,4.7,29.85,SSW,197,1.0,7.0,77,0.00,,BKN110,0.00,VWS V14.01,2013-02-05 11:10:00,
2013-02-05 05:15:00,10.8,4.7,29.85,SSW,197,4.0,10.0,76,0.00,,BKN110,0.00,VWS V14.01,2013-02-05 11:15:00,
2013-02-05 05:20:00,11.0,4.6,29.85,SSW,209,2.0,11.0,75,0.00,,BKN110,0.00,VWS V14.01,2013-02-05 11:20:00,
2013-02-05 05:25:00,11.2,4.8,29.85,SW,222,6.0,9.0,75,0.00,,BKN110,0.00,VWS V14.01,2013-02-05 11:25:00,
2013-02-05 05:30:00,11.4,5.0,29.85,SSW,209,1.0,9.0,75,0.00,,BKN110,0.00,VWS V14.01,2013-02-05 11:30:00,
2013-02-05 05:35:00,11.6,4.9,29.85,SW,234,6.0,8.0,74,0.00,,BKN110,0.00,VWS V14.01,2013-02-05 11:35:00,
2013-02-05 05:40:00,11.7,5.0,29.85,SW,229,4.0,10.0,74,0.00,,BKN110,0.00,VWS V14.01,2013-02-05 11:40:00,
2013-02-05 05:45:00,11.9,5.2,29.84,SW,227,5.0,10.0,74,0.00,,,0.00,VWS V14.01,2013-02-05 11:45:00,
2013-02-05 05:46:00,11.9,5.2,29.84,SW,221,3.0,9.0,74,0.00,,BKN110,0.00,VWS V14.01,2013-02-05 11:46:00,
2013-02-05 05:50:00,12.1,5.4,29.84,South,188,2.0,6.0,74,0.00,,,0.00,VWS V14.01,2013-02-05 11:50:00,
2013-02-05 05:51:00,12.1,5.4,29.84,SSE,167,4.0,7.0,74,0.00,,BKN110,0.00,VWS V14.01,2013-02-05 11:51:00,
2013-02-05 05:55:00,12.3,5.6,29.84,SSW,205,5.0,7.0,74,0.00,,,0.00,VWS V14.01,2013-02-05 11:55:00,
2013-02-05 05:56:00,12.3,5.6,29.83,SSW,198,2.0,7.0,74,0.00,,BKN110,0.00,VWS V14.01,2013-02-05 11:56:00,
2013-02-05 06:00:00,12.5,5.5,29.83,SSW,196,6.0,9.0,73,0.00,,,0.00,VWS V14.01,2013-02-05 12:00:00,
2013-02-05 06:01:00,12.6,5.6,29.83,South,188,6.0,10.0,73,0.00,,OVC070,0.00,VWS V14.01,2013-02-05 12:01:00,
2013-02-05 06:05:00,12.8,5.5,29.83,SSW,200,4.0,10.0,72,0.00,,,0.00,VWS V14.01,2013-02-05 12:05:00,
2013-02-05 06:06:00,12.8,5.2,29.82,SSW,196,6.0,10.0,71,0.00,,OVC070,0.00,VWS V14.01,2013-02-05 12:06:00,
2013-02-05 06:10:00,13.0,5.4,29.82,SW,215,6.0,10.0,71,0.00,,,0.00,VWS V14.01,2013-02-05 12:10:00,
2013-02-05 06:11:00,13.0,5.1,29.82,South,186,7.0,13.0,70,0.00,,OVC070,0.00,VWS V14.01,2013-02-05 12:11:00,
2013-02-05 06:15:00,13.1,5.2,29.82,SSW,199,9.0,11.0,70,0.00,,,0.00,VWS V14.01,2013-02-05 12:15:00,
2013-02-05 06:16:00,13.2,5.3,29.82,SSW,205,8.0,12.0,70,0.00,,OVC070,0.00,VWS V14.01,2013-02-05 12:16:00,
2013-02-05 06:20:00,13.2,4.9,29.81,SSW,197,12.0,12.0,69,0.00,,,0.00,VWS V14.01,2013-02-05 12:20:00,
2013-02-05 06:21:00,13.2,4.9,29.81,South,180,8.0,12.0,69,0.00,,OVC070,0.00,VWS V14.01,2013-02-05 12:21:00,
2013-02-05 06:25:00,13.3,5.1,29.81,SSW,196,9.0,12.0,69,0.00,,,0.00,VWS V14.01,2013-02-05 12:25:00,
2013-02-05 06:26:00,13.4,5.1,29.82,SSW,194,7.0,12.0,69,0.00,,OVC070,0.00,VWS V14.01,2013-02-05 12:26:00,
2013-02-05 06:30:00,13.5,5.2,29.81,South,184,2.0,11.0,69,0.00,,,0.00,VWS V14.01,2013-02-05 12:30:00,
2013-02-05 06:31:00,13.5,5.6,29.81,SSW,209,6.0,11.0,70,0.00,,OVC070,0.00,VWS V14.01,2013-02-05 12:31:00,
2013-02-05 06:35:00,15.3,10.5,29.81,South,186,4.0,12.0,81,0.00,,FEW070,0.00,VWS V14.01,2013-02-05 12:35:00,
2013-02-05 06:36:00,13.6,5.7,29.81,SSE,168,7.0,13.0,70,0.00,,OVC070,0.00,VWS V14.01,2013-02-05 12:36:00,
2013-02-05 06:40:00,13.6,5.7,29.81,SSW,196,6.0,11.0,70,0.00,,,0.00,VWS V14.01,2013-02-05 12:40:00,
2013-02-05 06:41:00,13.7,6.1,29.81,South,186,6.0,11.0,71,0.00,,OVC070,0.00,VWS V14.01,2013-02-05 12:41:00,
2013-02-05 06:45:00,13.7,6.1,29.81,SSW,193,7.0,13.0,71,0.00,,,0.00,VWS V14.01,2013-02-05 12:45:00,
2013-02-05 06:46:00,13.7,6.7,29.81,South,178,4.0,13.0,73,0.00,,OVC070,0.00,VWS V14.01,2013-02-05 12:46:00,
2013-02-05 06:50:00,13.7,7.0,29.81,SSW,194,8.0,12.0,74,0.00,,,0.00,VWS V14.01,2013-02-05 12:50:00,
2013-02-05 06:51:00,13.8,7.1,29.81,South,181,7.0,12.0,74,0.00,,OVC070,0.00,VWS V14.01,2013-02-05 12:51:00,
2013-02-05 06:55:00,14.0,7.6,29.81,SW,229,7.0,10.0,75,0.00,,,0.00,VWS V14.01,2013-02-05 12:55:00,
2013-02-05 06:57:00,14.1,7.9,29.81,SW,225,4.0,9.0,76,0.00,,OVC070,0.00,VWS V14.01,2013-02-05 12:57:00,
2013-02-05 07:00:00,14.2,8.0,29.81,South,181,1.0,11.0,76,0.00,,,0.00,VWS V14.01,2013-02-05 13:00:00,
2013-02-05 07:02:00,14.3,8.4,29.81,SSW,198,7.0,9.0,77,0.00,,,0.00,VWS V14.01,2013-02-05 13:02:00,
2013-02-05 07:05:00,14.4,8.5,29.81,SSW,197,9.0,12.0,77,0.00,,,0.00,VWS V14.01,2013-02-05 13:05:00,
2013-02-05 07:07:00,14.4,8.5,29.81,SSW,199,5.0,13.0,77,0.00,,,0.00,VWS V14.01,2013-02-05 13:07:00,
2013-02-05 07:10:00,14.4,8.8,29.81,SSW,192,6.0,13.0,78,0.00,,,0.00,VWS V14.01,2013-02-05 13:10:00,
2013-02-05 07:12:00,14.5,8.9,29.81,South,184,5.0,10.0,78,0.00,,,0.00,VWS V14.01,2013-02-05 13:12:00,
2013-02-05 07:15:00,14.6,9.0,29.81,South,178,2.0,10.0,78,0.00,,,0.00,VWS V14.01,2013-02-05 13:15:00,
2013-02-05 07:17:00,14.8,9.5,29.82,SW,225,4.0,6.0,79,0.00,,,0.00,VWS V14.01,2013-02-05 13:17:00,
2013-02-05 07:20:00,14.9,9.6,29.81,SSW,194,7.0,8.0,79,0.00,,,0.00,VWS V14.01,2013-02-05 13:20:00,
2013-02-05 07:22:00,14.9,9.6,29.81,SSW,198,3.0,12.0,79,0.00,,,0.00,VWS V14.01,2013-02-05 13:22:00,
2013-02-05 07:25:00,15.0,10.0,29.81,South,186,3.0,12.0,80,0.00,,,0.00,VWS V14.01,2013-02-05 13:25:00,
2013-02-05 07:27:00,15.1,10.1,29.81,SW,228,5.0,10.0,80,0.00,,,0.00,VWS V14.01,2013-02-05 13:27:00,
2013-02-05 07:30:00,17.2,13.5,29.78,SSW,204,12.0,15.0,85,0.00,,FEW070,0.00,VWS V14.01,2013-02-05 13:30:00,
2013-02-05 07:32:00,15.3,10.5,29.81,SW,214,4.0,10.0,81,0.00,,,0.00,VWS V14.01,2013-02-05 13:32:00,
2013-02-05 07:35:00,15.3,10.5,29.81,South,186,4.0,12.0,81,0.00,,,0.00,VWS V14.01,2013-02-05 13:35:00,
2013-02-05 07:37:00,15.4,10.6,29.81,SSW,198,10.0,12.0,81,0.00,,,0.00,VWS V14.01,2013-02-05 13:37:00,
2013-02-05 07:40:00,15.5,10.7,29.81,South,182,4.0,14.0,81,0.00,,,0.00,VWS V14.01,2013-02-05 13:40:00,
2013-02-05 07:42:00,15.5,11.0,29.81,South,172,3.0,10.0,82,0.00,,,0.00,VWS V14.01,2013-02-05 13:42:00,
2013-02-05 07:45:00,15.5,11.0,29.81,South,171,7.0,9.0,82,0.00,,,0.00,VWS V14.01,2013-02-05 13:45:00,
2013-02-05 07:47:00,15.6,11.1,29.80,SSW,213,9.0,11.0,82,0.00,,,0.00,VWS V14.01,2013-02-05 13:47:00,
2013-02-05 07:50:00,15.5,11.0,29.80,South,173,6.0,11.0,82,0.00,,,0.00,VWS V14.01,2013-02-05 13:50:00,
2013-02-05 07:52:00,15.6,11.4,29.80,SSW,200,5.0,11.0,83,0.00,,,0.00,VWS V14.01,2013-02-05 13:52:00,
2013-02-05 07:55:00,15.7,11.5,29.80,SW,220,4.0,10.0,83,0.00,,,0.00,VWS V14.01,2013-02-05 13:55:00,
2013-02-05 07:57:00,15.8,11.6,29.80,SSW,194,10.0,12.0,83,0.00,,,0.00,VWS V14.01,2013-02-05 13:57:00,
2013-02-05 08:00:00,15.8,11.6,29.79,SSW,202,5.0,13.0,83,0.00,,,0.00,VWS V14.01,2013-02-05 14:00:00,
2013-02-05 08:02:00,16.0,12.0,29.79,SSW,212,1.0,11.0,84,0.00,,,0.00,VWS V14.01,2013-02-05 14:02:00,
2013-02-05 08:05:00,16.1,12.1,29.79,South,180,6.0,9.0,84,0.00,,,0.00,VWS V14.01,2013-02-05 14:05:00,
2013-02-05 08:08:00,16.4,12.4,29.79,South,186,6.0,8.0,84,0.00,,,0.00,VWS V14.01,2013-02-05 14:08:00,
2013-02-05 08:10:00,16.4,12.4,29.79,SSW,202,7.0,14.0,84,0.00,,,0.00,VWS V14.01,2013-02-05 14:10:00,
2013-02-05 08:13:00,16.5,14.6,29.79,South,186,5.0,14.0,92,0.00,,,0.00,VWS V14.01,2013-02-05 14:13:00,
2013-02-05 08:15:00,16.6,12.6,29.79,SW,231,6.0,12.0,84,0.00,,,0.00,VWS V14.01,2013-02-05 14:15:00,
2013-02-05 08:18:00,16.7,12.7,29.78,SSW,199,4.0,12.0,84,0.00,,,0.00,VWS V14.01,2013-02-05 14:18:00,
2013-02-05 08:20:00,16.8,13.1,29.78,South,188,12.0,12.0,85,0.00,,,0.00,VWS V14.01,2013-02-05 14:20:00,
2013-02-05 08:23:00,17.0,13.3,29.78,SSW,209,11.0,13.0,85,0.00,,,0.00,VWS V14.01,2013-02-05 14:23:00,
2013-02-05 08:25:00,17.0,13.3,29.78,SSW,192,7.0,13.0,85,0.00,,,0.00,VWS V14.01,2013-02-05 14:25:00,
2013-02-05 08:28:00,17.1,13.4,29.78,SSW,207,9.0,15.0,85,0.00,,,0.00,VWS V14.01,2013-02-05 14:28:00,
2013-02-05 08:30:00,17.2,13.5,29.78,SSW,204,12.0,15.0,85,0.00,,,0.00,VWS V14.01,2013-02-05 14:30:00,
2013-02-05 08:33:00,17.3,13.6,29.78,South,173,14.0,15.0,85,0.00,,,0.00,VWS V14.01,2013-02-05 14:33:00,
2013-02-05 08:35:00,17.4,13.7,29.77,SW,223,9.0,15.0,85,0.00,,,0.00,VWS V14.01,2013-02-05 14:35:00,
2013-02-05 08:38:00,17.6,13.9,29.77,SSW,192,7.0,15.0,85,0.00,,,0.00,VWS V14.01,2013-02-05 14:38:00,
2013-02-05 08:40:00,17.7,14.0,29.77,North,360,11.0,15.0,85,0.00,,,0.00,VWS V14.01,2013-02-05 14:40:00,
2013-02-05 08:43:00,17.9,14.2,29.77,South,191,5.0,12.0,85,0.00,,,0.00,VWS V14.01,2013-02-05 14:43:00,
2013-02-05 08:45:00,18.0,14.3,29.77,South,189,11.0,14.0,85,0.00,,,0.00,VWS V14.01,2013-02-05 14:45:00,
2013-02-05 08:48:00,18.1,14.4,29.76,SSW,212,10.0,16.0,85,0.00,,,0.00,VWS V14.01,2013-02-05 14:48:00,
2013-02-05 08:50:00,18.1,14.4,29.76,SSW,199,8.0,16.0,85,0.00,,,0.00,VWS V14.01,2013-02-05 14:50:00,
2013-02-05 08:53:00,18.2,14.5,29.76,SW,230,4.0,14.0,85,0.00,,,0.00,VWS V14.01,2013-02-05 14:53:00,
2013-02-05 08:55:00,18.3,14.6,29.76,SSW,206,11.0,14.0,85,0.00,,,0.00,VWS V14.01,2013-02-05 14:55:00,
2013-02-05 08:58:00,18.5,14.8,29.76,SW,223,11.0,14.0,85,0.00,,,0.00,VWS V14.01,2013-02-05 14:58:00,
2013-02-05 09:00:00,18.5,14.8,29.76,SSW,207,8.0,14.0,85,0.00,,,0.00,VWS V14.01,2013-02-05 15:00:00,
2013-02-05 09:03:00,18.8,15.1,29.77,SW,216,11.0,17.0,85,0.00,,OVC090,0.00,VWS V14.01,2013-02-05 15:03:00,
2013-02-05 09:05:00,18.8,15.1,29.77,South,181,11.0,17.0,85,0.00,,,0.00,VWS V14.01,2013-02-05 15:05:00,
2013-02-05 09:09:00,19.2,15.4,29.77,SSW,208,4.0,12.0,85,0.00,,OVC090,0.00,VWS V14.01,2013-02-05 15:09:00,
2013-02-05 09:10:00,19.3,15.5,29.77,SSW,198,7.0,13.0,85,0.00,,,0.00,VWS V14.01,2013-02-05 15:10:00,
2013-02-05 09:14:00,19.5,15.7,29.77,SSW,209,3.0,12.0,85,0.00,,OVC090,0.00,VWS V14.01,2013-02-05 15:14:00,
2013-02-05 09:15:00,19.6,15.8,29.77,SSW,194,5.0,10.0,85,0.00,,,0.00,VWS V14.01,2013-02-05 15:15:00,
2013-02-05 09:19:00,19.9,15.9,29.77,SSW,197,7.0,12.0,84,0.00,,OVC090,0.00,VWS V14.01,2013-02-05 15:19:00,
2013-02-05 09:20:00,19.9,15.9,29.77,South,174,9.0,12.0,84,0.00,,,0.00,VWS V14.01,2013-02-05 15:20:00,
2013-02-05 09:24:00,20.0,15.9,29.77,South,190,7.0,12.0,84,0.00,,OVC090,0.00,VWS V14.01,2013-02-05 15:24:00,
2013-02-05 09:25:00,20.0,15.9,29.77,WSW,237,6.0,12.0,84,0.00,,,0.00,VWS V14.01,2013-02-05 15:25:00,
2013-02-05 09:29:00,20.4,16.6,29.77,WSW,244,7.0,11.0,85,0.00,,OVC090,0.00,VWS V14.01,2013-02-05 15:29:00,
2013-02-05 09:30:00,20.4,16.6,29.77,SW,230,5.0,11.0,85,0.00,,,0.00,VWS V14.01,2013-02-05 15:30:00,
2013-02-05 09:34:00,20.9,16.8,29.77,SW,223,5.0,12.0,84,0.00,,OVC090,0.00,VWS V14.01,2013-02-05 15:34:00,
2013-02-05 09:35:00,20.9,19.0,29.77,SW,232,9.0,13.0,92,0.00,,,0.00,VWS V14.01,2013-02-05 15:35:00,
2013-02-05 09:39:00,21.1,17.0,29.77,SW,216,5.0,13.0,84,0.00,,OVC090,0.00,VWS V14.01,2013-02-05 15:39:00,
2013-02-05 09:40:00,21.1,17.0,29.77,SSW,197,1.0,13.0,84,0.00,,,0.00,VWS V14.01,2013-02-05 15:40:00,
2013-02-05 09:44:00,21.4,17.3,29.77,SSW,210,7.0,16.0,84,0.00,,OVC090,0.00,VWS V14.01,2013-02-05 15:44:00,
2013-02-05 09:45:00,21.4,17.3,29.77,SSW,206,8.0,16.0,84,0.00,,,0.00,VWS V14.01,2013-02-05 15:45:00,
2013-02-05 09:49:00,21.5,17.4,29.76,WSW,256,9.0,13.0,84,0.00,,OVC090,0.00,VWS V14.01,2013-02-05 15:49:00,
2013-02-05 09:50:00,21.5,17.4,29.76,SSE,165,7.0,13.0,84,0.00,,,0.00,VWS V14.01,2013-02-05 15:50:00,
2013-02-05 09:54:00,21.4,17.3,29.76,South,181,11.0,16.0,84,0.00,,OVC090,0.00,VWS V14.01,2013-02-05 15:54:00,
2013-02-05 09:55:00,21.4,17.3,29.76,South,181,11.0,16.0,84,0.00,,,0.00,VWS V14.01,2013-02-05 15:55:00,
2013-02-05 09:59:00,21.2,17.1,29.76,SW,224,5.0,15.0,84,0.00,,OVC090,0.00,VWS V14.01,2013-02-05 15:59:00,
2013-02-05 10:00:00,21.2,17.1,29.76,SW,224,5.0,15.0,84,0.00,,,0.00,VWS V14.01,2013-02-05 16:00:00,
2013-02-05 10:04:00,21.2,17.1,29.77,SSW,206,7.0,15.0,84,0.00,,OVC040,0.00,VWS V14.01,2013-02-05 16:04:00,
2013-02-05 10:05:00,21.2,17.1,29.77,SSW,206,7.0,15.0,84,0.00,,,0.00,VWS V14.01,2013-02-05 16:05:00,
2013-02-05 10:09:00,21.3,17.2,29.76,SSE,163,5.0,15.0,84,0.00,,OVC040,0.00,VWS V14.01,2013-02-05 16:09:00,
2013-02-05 10:10:00,21.3,17.2,29.76,SSE,163,5.0,15.0,84,0.00,,,0.00,VWS V14.01,2013-02-05 16:10:00,
2013-02-05 10:14:00,21.4,17.3,29.76,North,360,12.0,15.0,84,0.00,,OVC040,0.00,VWS V14.01,2013-02-05 16:14:00,
2013-02-05 10:15:00,21.4,17.3,29.76,North,360,12.0,15.0,84,0.00,,,0.00,VWS V14.01,2013-02-05 16:15:00,
2013-02-05 10:19:00,21.4,17.6,29.76,SSW,205,5.0,18.0,85,0.00,,OVC040,0.00,VWS V14.01,2013-02-05 16:19:00,
2013-02-05 10:20:00,21.4,17.6,29.76,SSW,205,5.0,18.0,85,0.00,,,0.00,VWS V14.01,2013-02-05 16:20:00,
2013-02-05 10:24:00,21.5,17.7,29.76,North,360,13.0,14.0,85,0.00,,OVC040,0.00,VWS V14.01,2013-02-05 16:24:00,
2013-02-05 10:25:00,21.5,17.7,29.76,North,360,13.0,14.0,85,0.00,,,0.00,VWS V14.01,2013-02-05 16:25:00,
2013-02-05 10:29:00,21.4,17.9,29.75,SW,217,12.0,16.0,86,0.00,,OVC040,0.00,VWS V14.01,2013-02-05 16:29:00,
2013-02-05 10:30:00,21.4,17.9,29.75,SW,217,12.0,16.0,86,0.00,,,0.00,VWS V14.01,2013-02-05 16:30:00,
2013-02-05 10:34:00,21.4,17.9,29.75,South,184,9.0,16.0,86,0.00,,OVC040,0.00,VWS V14.01,2013-02-05 16:34:00,
2013-02-05 10:35:00,21.4,17.9,29.75,South,184,9.0,16.0,86,0.00,,,0.00,VWS V14.01,2013-02-05 16:35:00,
2013-02-05 10:39:00,21.5,18.2,29.75,SSW,209,9.0,13.0,87,0.00,,OVC040,0.00,VWS V14.01,2013-02-05 16:39:00,
2013-02-05 10:40:00,21.5,18.2,29.75,SSW,209,9.0,13.0,87,0.00,,,0.00,VWS V14.01,2013-02-05 16:40:00,
2013-02-05 10:44:00,21.6,18.6,29.75,South,188,3.0,12.0,88,0.00,,OVC040,0.00,VWS V14.01,2013-02-05 16:44:00,
2013-02-05 10:45:00,21.6,18.6,29.75,South,188,3.0,12.0,88,0.00,,,0.00,VWS V14.01,2013-02-05 16:45:00,
2013-02-05 10:49:00,21.8,18.8,29.76,WSW,245,4.0,11.0,88,0.00,,OVC040,0.00,VWS V14.01,2013-02-05 16:49:00,
2013-02-05 10:50:00,21.8,18.8,29.76,WSW,245,4.0,11.0,88,0.00,,,0.00,VWS V14.01,2013-02-05 16:50:00,
2013-02-05 10:55:00,22.0,19.3,29.76,SW,234,0.0,12.0,89,0.00,,OVC040,0.00,VWS V14.01,2013-02-05 16:55:00,
2013-02-05 11:00:00,22.2,19.7,29.76,West,269,2.0,10.0,90,0.00,,OVC040,0.00,VWS V14.01,2013-02-05 17:00:00,
2013-02-05 11:05:00,22.4,19.9,29.76,SW,229,4.0,14.0,90,0.00,,OVC029,0.00,VWS V14.01,2013-02-05 17:05:00,
2013-02-05 11:10:00,22.7,20.2,29.76,West,259,7.0,9.0,90,0.00,,OVC029,0.00,VWS V14.01,2013-02-05 17:10:00,
2013-02-05 11:15:00,22.9,20.7,29.76,SW,224,10.0,15.0,91,0.00,,OVC029,0.00,VWS V14.01,2013-02-05 17:15:00,
2013-02-05 11:20:00,22.9,20.4,29.76,SW,217,4.0,15.0,90,0.00,,,0.00,VWS V14.01,2013-02-05 17:20:00,
2013-02-05 11:21:00,22.9,20.7,29.76,WSW,248,10.0,14.0,91,0.00,,OVC029,0.00,VWS V14.01,2013-02-05 17:21:00,
2013-02-05 11:25:00,23.1,20.9,29.76,SW,217,4.0,13.0,91,0.00,,,0.00,VWS V14.01,2013-02-05 17:25:00,
2013-02-05 11:26:00,23.1,20.9,29.76,SW,222,9.0,15.0,91,0.00,,OVC029,0.00,VWS V14.01,2013-02-05 17:26:00,
2013-02-05 11:30:00,23.0,20.8,29.76,SW,233,12.0,16.0,91,0.00,,,0.00,VWS V14.01,2013-02-05 17:30:00,
2013-02-05 11:31:00,23.0,20.8,29.76,WSW,240,7.0,16.0,91,0.00,,,0.00,VWS V14.01,2013-02-05 17:31:00,
2013-02-05 11:35:00,23.1,20.9,29.76,South,191,9.0,14.0,91,0.00,,,0.00,VWS V14.01,2013-02-05 17:35:00,
2013-02-05 11:36:00,23.1,20.9,29.75,SW,215,9.0,12.0,91,0.00,,,0.00,VWS V14.01,2013-02-05 17:36:00,
2013-02-05 11:40:00,23.2,21.0,29.75,SSW,212,6.0,14.0,91,0.00,,,0.00,VWS V14.01,2013-02-05 17:40:00,
2013-02-05 11:41:00,23.2,21.0,29.75,WSW,244,10.0,14.0,91,0.00,,,0.00,VWS V14.01,2013-02-05 17:41:00,
2013-02-05 11:45:00,23.2,20.7,29.75,SW,225,7.0,15.0,90,0.00,,,0.00,VWS V14.01,2013-02-05 17:45:00,
2013-02-05 11:46:00,23.3,20.8,29.75,SW,236,14.0,15.0,90,0.00,,,0.00,VWS V14.01,2013-02-05 17:46:00,
2013-02-05 11:50:00,23.3,20.8,29.75,WSW,244,4.0,19.0,90,0.00,,,0.00,VWS V14.01,2013-02-05 17:50:00,
2013-02-05 11:51:00,23.3,20.8,29.75,SW,236,13.0,18.0,90,0.00,,,0.00,VWS V14.01,2013-02-05 17:51:00,
2013-02-05 11:55:00,23.4,20.9,29.75,SW,227,10.0,18.0,90,0.00,,,0.00,VWS V14.01,2013-02-05 17:55:00,
2013-02-05 11:56:00,23.6,21.1,29.75,SSW,196,8.0,12.0,90,0.00,,,0.00,VWS V14.01,2013-02-05 17:56:00,
2013-02-05 12:00:00,23.8,21.3,29.75,West,260,4.0,16.0,90,0.00,,,0.00,VWS V14.01,2013-02-05 18:00:00,
2013-02-05 12:01:00,23.8,21.0,29.75,SW,229,4.0,16.0,89,0.00,,,0.00,VWS V14.01,2013-02-05 18:01:00,
2013-02-05 12:05:00,24.0,21.5,29.75,SSW,210,12.0,14.0,90,0.00,,,0.00,VWS V14.01,2013-02-05 18:05:00,
2013-02-05 12:06:00,24.1,21.3,29.75,SW,235,8.0,17.0,89,0.00,,,0.00,VWS V14.01,2013-02-05 18:06:00,
2013-02-05 12:10:00,24.2,21.4,29.75,WSW,250,8.0,16.0,89,0.00,,,0.00,VWS V14.01,2013-02-05 18:10:00,
2013-02-05 12:11:00,24.3,21.3,29.75,WNW,285,6.0,16.0,88,0.00,,,0.00,VWS V14.01,2013-02-05 18:11:00,
2013-02-05 12:15:00,24.3,21.3,29.75,SW,227,4.0,18.0,88,0.00,,,0.00,VWS V14.01,2013-02-05 18:15:00,
2013-02-05 12:17:00,24.4,21.1,29.75,SSW,213,1.0,18.0,87,0.00,,,0.00,VWS V14.01,2013-02-05 18:17:00,
2013-02-05 12:20:00,24.7,21.4,29.75,WSW,250,7.0,15.0,87,0.00,,,0.00,VWS V14.01,2013-02-05 18:20:00,
2013-02-05 12:22:00,24.7,21.4,29.75,WSW,253,10.0,17.0,87,0.00,,,0.00,VWS V14.01,2013-02-05 18:22:00,
2013-02-05 12:25:00,24.7,21.1,29.75,SW,215,6.0,17.0,86,0.00,,,0.00,VWS V14.01,2013-02-05 18:25:00,
2013-02-05 12:27:00,24.7,21.1,29.75,WSW,246,9.0,15.0,86,0.00,,,0.00,VWS V14.01,2013-02-05 18:27:00,
2013-02-05 12:30:00,24.8,21.2,29.75,West,270,7.0,15.0,86,0.00,,,0.00,VWS V14.01,2013-02-05 18:30:00,
2013-02-05 12:32:00,24.8,20.9,29.75,West,269,9.0,15.0,85,0.00,,,0.00,VWS V14.01,2013-02-05 18:32:00,
2013-02-05 12:35:00,24.9,21.0,29.75,West,269,13.0,15.0,85,0.00,,,0.00,VWS V14.01,2013-02-05 18:35:00,
2013-02-05 12:37:00,24.9,21.0,29.75,WSW,254,11.0,15.0,85,0.00,,,0.00,VWS V14.01,2013-02-05 18:37:00,
2013-02-05 12:40:00,24.9,20.8,29.75,WSW,254,9.0,16.0,84,0.00,,,0.00,VWS V14.01,2013-02-05 18:40:00,
2013-02-05 12:42:00,24.9,20.8,29.75,WSW,250,5.0,16.0,84,0.00,,,0.00,VWS V14.01,2013-02-05 18:42:00,
2013-02-05 12:45:00,25.1,21.0,29.75,SW,219,4.0,14.0,84,0.00,,,0.00,VWS V14.01,2013-02-05 18:45:00,
2013-02-05 12:47:00,25.1,20.7,29.75,West,259,8.0,16.0,83,0.00,,,0.00,VWS V14.01,2013-02-05 18:47:00,
2013-02-05 12:50:00,25.1,20.7,29.75,West,273,10.0,16.0,83,0.00,,,0.00,VWS V14.01,2013-02-05 18:50:00,
2013-02-05 12:52:00,25.1,20.7,29.75,West,275,9.0,17.0,83,0.00,,,0.00,VWS V14.01,2013-02-05 18:52:00,
2013-02-05 12:55:00,25.1,20.7,29.75,West,274,7.0,17.0,83,0.00,,,0.00,VWS V14.01,2013-02-05 18:55:00,
2013-02-05 12:57:00,25.1,20.4,29.75,West,259,11.0,17.0,82,0.00,,,0.00,VWS V14.01,2013-02-05 18:57:00,
2013-02-05 13:00:00,25.1,20.4,29.76,WSW,257,12.0,17.0,82,0.00,,,0.00,VWS V14.01,2013-02-05 19:00:00,
2013-02-05 13:02:00,25.1,20.4,29.75,West,261,10.0,17.0,82,0.00,,,0.00,VWS V14.01,2013-02-05 19:02:00,
2013-02-05 13:05:00,25.1,20.4,29.76,WSW,254,9.0,15.0,82,0.00,,,0.00,VWS V14.01,2013-02-05 19:05:00,
2013-02-05 13:07:00,25.3,20.6,29.76,WNW,294,4.0,12.0,82,0.00,,,0.00,VWS V14.01,2013-02-05 19:07:00,
2013-02-05 13:10:00,25.3,20.6,29.76,WSW,241,10.0,15.0,82,0.00,,,0.00,VWS V14.01,2013-02-05 19:10:00,
2013-02-05 13:12:00,25.2,20.5,29.76,WNW,285,13.0,15.0,82,0.00,,,0.00,VWS V14.01,2013-02-05 19:12:00,
2013-02-05 13:15:00,25.2,20.5,29.76,West,281,12.0,16.0,82,0.00,,,0.00,VWS V14.01,2013-02-05 19:15:00,
2013-02-05 13:17:00,25.1,20.4,29.76,WNW,284,3.0,16.0,82,0.00,,,0.00,VWS V14.01,2013-02-05 19:17:00,
2013-02-05 13:20:00,25.2,20.5,29.76,West,270,6.0,15.0,82,0.00,,,0.00,VWS V14.01,2013-02-05 19:20:00,
2013-02-05 13:23:00,25.1,20.4,29.76,SW,232,17.0,19.0,82,0.00,,,0.00,VWS V14.01,2013-02-05 19:23:00,
2013-02-05 13:25:00,25.4,21.0,29.78,West,275,8.0,14.0,83,0.00,,FEW070,0.00,VWS V14.01,2013-02-05 19:25:00,
2013-02-05 13:28:00,25.1,20.4,29.76,West,264,11.0,17.0,82,0.00,,,0.00,VWS V14.01,2013-02-05 19:28:00,
2013-02-05 13:30:00,25.4,21.0,29.78,West,268,8.0,13.0,83,0.00,,FEW070,0.00,VWS V14.01,2013-02-05 19:30:00,
2013-02-05 13:33:00,25.2,20.5,29.76,WSW,258,2.0,12.0,82,0.00,,,0.00,VWS V14.01,2013-02-05 19:33:00,
2013-02-05 13:35:00,25.2,20.5,29.76,West,276,1.0,11.0,82,0.00,,,0.00,VWS V14.01,2013-02-05 19:35:00,
2013-02-05 13:38:00,25.2,20.5,29.76,West,260,12.0,17.0,82,0.00,,,0.00,VWS V14.01,2013-02-05 19:38:00,
2013-02-05 13:40:00,25.2,20.5,29.76,West,269,9.0,17.0,82,0.00,,,0.00,VWS V14.01,2013-02-05 19:40:00,
2013-02-05 13:43:00,25.1,20.4,29.76,West,270,12.0,14.0,82,0.00,,,0.00,VWS V14.01,2013-02-05 19:43:00,
2013-02-05 13:45:00,25.1,20.4,29.77,WSW,244,8.0,14.0,82,0.00,,,0.00,VWS V14.01,2013-02-05 19:45:00,
2013-02-05 13:48:00,25.2,20.8,29.77,West,275,8.0,15.0,83,0.00,,,0.00,VWS V14.01,2013-02-05 19:48:00,
2013-02-05 13:50:00,25.3,20.9,29.77,WSW,250,9.0,13.0,83,0.00,,,0.00,VWS V14.01,2013-02-05 19:50:00,
2013-02-05 13:53:00,25.3,22.5,29.77,West,268,6.0,19.0,89,0.00,,,0.00,VWS V14.01,2013-02-05 19:53:00,
2013-02-05 13:55:00,25.3,20.9,29.77,West,261,4.0,19.0,83,0.00,,,0.00,VWS V14.01,2013-02-05 19:55:00,
2013-02-05 13:58:00,25.3,20.6,29.77,West,269,10.0,17.0,82,0.00,,,0.00,VWS V14.01,2013-02-05 19:58:00,
2013-02-05 14:00:00,25.2,20.5,29.77,WSW,246,10.0,17.0,82,0.00,,,0.00,VWS V14.01,2013-02-05 20:00:00,
2013-02-05 14:03:00,25.3,20.6,29.77,West,272,11.0,12.0,82,0.00,,,0.00,VWS V14.01,2013-02-05 20:03:00,
2013-02-05 14:05:00,25.3,20.9,29.77,West,266,6.0,12.0,83,0.00,,,0.00,VWS V14.01,2013-02-05 20:05:00,
2013-02-05 14:08:00,25.5,21.1,29.77,WSW,252,8.0,11.0,83,0.00,,,0.00,VWS V14.01,2013-02-05 20:08:00,
2013-02-05 14:10:00,25.5,21.1,29.77,WNW,290,3.0,11.0,83,0.00,,,0.00,VWS V14.01,2013-02-05 20:10:00,
2013-02-05 14:13:00,25.5,21.1,29.77,West,278,10.0,13.0,83,0.00,,,0.00,VWS V14.01,2013-02-05 20:13:00,
2013-02-05 14:15:00,25.4,21.0,29.77,WNW,286,12.0,13.0,83,0.00,,,0.00,VWS V14.01,2013-02-05 20:15:00,
2013-02-05 14:18:00,25.4,21.0,29.78,West,267,13.0,15.0,83,0.00,,,0.00,VWS V14.01,2013-02-05 20:18:00,
2013-02-05 14:20:00,25.4,21.0,29.78,West,267,8.0,15.0,83,0.00,,,0.00,VWS V14.01,2013-02-05 20:20:00,
2013-02-05 14:24:00,25.4,21.0,29.78,West,261,8.0,11.0,83,0.00,,,0.00,VWS V14.01,2013-02-05 20:24:00,
2013-02-05 14:25:00,25.4,21.0,29.78,West,275,8.0,14.0,83,0.00,,,0.00,VWS V14.01,2013-02-05 20:25:00,
2013-02-05 14:29:00,25.4,21.0,29.78,WSW,253,9.0,13.0,83,0.00,,,0.00,VWS V14.01,2013-02-05 20:29:00,
2013-02-05 14:30:00,25.4,21.0,29.78,West,268,8.0,13.0,83,0.00,,,0.00,VWS V14.01,2013-02-05 20:30:00,
2013-02-05 14:34:00,25.4,21.0,29.79,WSW,254,11.0,13.0,83,0.00,,,0.00,VWS V14.01,2013-02-05 20:34:00,
2013-02-05 14:35:00,26.1,21.6,29.82,WSW,251,3.0,11.0,83,0.00,,FEW070,0.00,VWS V14.01,2013-02-05 20:35:00,
2013-02-05 14:39:00,25.4,21.0,29.79,NW,304,11.0,15.0,83,0.00,,,0.00,VWS V14.01,2013-02-05 20:39:00,
2013-02-05 14:40:00,26.0,21.3,29.81,WNW,282,6.0,12.0,82,0.00,,FEW070,0.00,VWS V14.01,2013-02-05 20:40:00,
2013-02-05 14:44:00,25.5,21.1,29.79,West,273,9.0,14.0,83,0.00,,,0.00,VWS V14.01,2013-02-05 20:44:00,
2013-02-05 14:45:00,25.5,21.1,29.79,West,270,7.0,14.0,83,0.00,,,0.00,VWS V14.01,2013-02-05 20:45:00,
2013-02-05 14:49:00,25.5,21.1,29.79,WSW,250,8.0,16.0,83,0.00,,,0.00,VWS V14.01,2013-02-05 20:49:00,
2013-02-05 14:50:00,25.5,21.1,29.79,West,268,12.0,16.0,83,0.00,,,0.00,VWS V14.01,2013-02-05 20:50:00,
2013-02-05 14:54:00,25.6,21.2,29.79,WSW,248,9.0,12.0,83,0.00,,,0.00,VWS V14.01,2013-02-05 20:54:00,
2013-02-05 14:55:00,25.6,21.2,29.79,West,263,7.0,12.0,83,0.00,,,0.00,VWS V14.01,2013-02-05 20:55:00,
2013-02-05 14:59:00,25.6,21.2,29.80,WSW,254,4.0,14.0,83,0.00,,,0.00,VWS V14.01,2013-02-05 20:59:00,
2013-02-05 15:00:00,25.6,21.2,29.80,WSW,256,5.0,14.0,83,0.00,,,0.00,VWS V14.01,2013-02-05 21:00:00,
2013-02-05 15:04:00,25.7,21.3,29.80,West,275,8.0,12.0,83,0.00,,,0.00,VWS V14.01,2013-02-05 21:04:00,
2013-02-05 15:05:00,25.7,21.3,29.80,West,271,7.0,12.0,83,0.00,,,0.00,VWS V14.01,2013-02-05 21:05:00,
2013-02-05 15:09:00,25.8,21.4,29.81,WSW,253,6.0,13.0,83,0.00,,,0.00,VWS V14.01,2013-02-05 21:09:00,
2013-02-05 15:10:00,25.8,21.4,29.81,WSW,253,6.0,13.0,83,0.00,,,0.00,VWS V14.01,2013-02-05 21:10:00,
2013-02-05 15:14:00,25.8,21.4,29.81,West,259,11.0,14.0,83,0.00,,,0.00,VWS V14.01,2013-02-05 21:14:00,
2013-02-05 15:15:00,25.8,21.4,29.81,West,259,11.0,14.0,83,0.00,,,0.00,VWS V14.01,2013-02-05 21:15:00,
2013-02-05 15:19:00,25.9,21.5,29.81,WNW,284,3.0,12.0,83,0.00,,,0.00,VWS V14.01,2013-02-05 21:19:00,
2013-02-05 15:20:00,25.9,21.5,29.81,WNW,284,3.0,12.0,83,0.00,,,0.00,VWS V14.01,2013-02-05 21:20:00,
2013-02-05 15:24:00,26.0,21.6,29.81,West,275,5.0,9.0,83,0.00,,,0.00,VWS V14.01,2013-02-05 21:24:00,
2013-02-05 15:25:00,26.0,21.6,29.81,West,275,5.0,9.0,83,0.00,,,0.00,VWS V14.01,2013-02-05 21:25:00,
2013-02-05 15:29:00,26.0,21.6,29.82,WNW,292,6.0,12.0,83,0.00,,,0.00,VWS V14.01,2013-02-05 21:29:00,
2013-02-05 15:30:00,26.0,21.6,29.82,WNW,292,6.0,12.0,83,0.00,,,0.00,VWS V14.01,2013-02-05 21:30:00,
2013-02-05 15:34:00,26.1,21.6,29.82,WSW,251,3.0,11.0,83,0.00,,,0.00,VWS V14.01,2013-02-05 21:34:00,
2013-02-05 15:35:00,26.1,21.6,29.82,WSW,251,3.0,11.0,83,0.00,,,0.00,VWS V14.01,2013-02-05 21:35:00,
2013-02-05 15:39:00,26.0,21.3,29.81,WNW,282,6.0,12.0,82,0.00,,,0.00,VWS V14.01,2013-02-05 21:39:00,
2013-02-05 15:40:00,26.0,21.3,29.81,WNW,282,6.0,12.0,82,0.00,,,0.00,VWS V14.01,2013-02-05 21:40:00,
2013-02-05 15:45:00,26.2,21.8,29.81,West,260,0.0,7.0,83,0.00,,,0.00,VWS V14.01,2013-02-05 21:45:00,
2013-02-05 15:50:00,26.2,21.5,29.82,WSW,241,12.0,14.0,82,0.00,,,0.00,VWS V14.01,2013-02-05 21:50:00,
2013-02-05 15:55:00,26.3,21.9,29.82,West,265,6.0,10.0,83,0.00,,,0.00,VWS V14.01,2013-02-05 21:55:00,
2013-02-05 16:00:00,26.2,21.8,29.82,West,271,7.0,12.0,83,0.00,,,0.00,VWS V14.01,2013-02-05 22:00:00,
2013-02-05 16:05:00,26.2,21.8,29.83,West,265,7.0,10.0,83,0.00,,,0.00,VWS V14.01,2013-02-05 22:05:00,
2013-02-05 16:10:00,26.3,21.9,29.83,West,275,7.0,10.0,83,0.00,,,0.00,VWS V14.01,2013-02-05 22:10:00,
2013-02-05 16:15:00,26.4,22.0,29.83,West,277,7.0,10.0,83,0.00,,,0.00,VWS V14.01,2013-02-05 22:15:00,
2013-02-05 16:16:00,26.4,22.0,29.83,WNW,290,4.0,9.0,83,0.00,,,0.00,VWS V14.01,2013-02-05 22:16:00,
2013-02-05 16:20:00,26.5,22.0,29.83,West,265,4.0,10.0,83,0.00,,,0.00,VWS V14.01,2013-02-05 22:20:00,
2013-02-05 16:21:00,26.5,22.0,29.83,WNW,285,4.0,10.0,83,0.00,,,0.00,VWS V14.01,2013-02-05 22:21:00,
2013-02-05 16:25:00,26.6,22.1,29.83,West,274,4.0,9.0,83,0.00,,,0.00,VWS V14.01,2013-02-05 22:25:00,
2013-02-05 16:26:00,26.6,22.1,29.83,West,273,4.0,7.0,83,0.00,,,0.00,VWS V14.01,2013-02-05 22:26:00,
2013-02-05 16:30:00,26.5,22.0,29.84,West,272,7.0,9.0,83,0.00,,,0.00,VWS V14.01,2013-02-05 22:30:00,
2013-02-05 16:31:00,26.5,22.0,29.84,West,270,4.0,9.0,83,0.00,,,0.00,VWS V14.01,2013-02-05 22:31:00,
2013-02-05 16:35:00,26.6,22.1,29.84,WNW,300,4.0,8.0,83,0.00,,,0.00,VWS V14.01,2013-02-05 22:35:00,
2013-02-05 16:36:00,26.6,22.1,29.84,West,279,5.0,7.0,83,0.00,,,0.00,VWS V14.01,2013-02-05 22:36:00,
2013-02-05 16:40:00,26.6,22.1,29.84,WSW,258,5.0,10.0,83,0.00,,,0.00,VWS V14.01,2013-02-05 22:40:00,
2013-02-05 16:41:00,26.6,22.1,29.84,WNW,290,6.0,10.0,83,0.00,,,0.00,VWS V14.01,2013-02-05 22:41:00,
2013-02-05 16:45:00,26.8,22.6,29.88,West,267,5.0,8.0,84,0.00,,FEW070,0.00,VWS V14.01,2013-02-05 22:45:00,
2013-02-05 16:46:00,26.6,22.1,29.85,West,266,5.0,9.0,83,0.00,,,0.00,VWS V14.01,2013-02-05 22:46:00,
2013-02-05 16:50:00,26.6,22.1,29.85,West,280,5.0,8.0,83,0.00,,,0.00,VWS V14.01,2013-02-05 22:50:00,
2013-02-05 16:51:00,26.6,22.1,29.85,West,261,6.0,10.0,83,0.00,,,0.00,VWS V14.01,2013-02-05 22:51:00,
2013-02-05 16:55:00,26.7,22.2,29.85,West,274,3.0,10.0,83,0.00,,,0.00,VWS V14.01,2013-02-05 22:55:00,
2013-02-05 16:56:00,26.7,22.2,29.86,West,281,4.0,10.0,83,0.00,,,0.00,VWS V14.01,2013-02-05 22:56:00,
2013-02-05 17:00:00,26.7,22.2,29.86,West,281,2.0,7.0,83,0.00,,,0.00,VWS V14.01,2013-02-05 23:00:00,
2013-02-05 17:01:00,26.7,22.2,29.86,West,269,6.0,6.0,83,0.00,,,0.00,VWS V14.01,2013-02-05 23:01:00,
2013-02-05 17:05:00,26.7,22.2,29.86,West,275,6.0,9.0,83,0.00,,,0.00,VWS V14.01,2013-02-05 23:05:00,
2013-02-05 17:06:00,26.7,22.2,29.86,WNW,283,4.0,9.0,83,0.00,,,0.00,VWS V14.01,2013-02-05 23:06:00,
2013-02-05 17:10:00,26.7,22.2,29.86,West,277,7.0,9.0,83,0.00,,,0.00,VWS V14.01,2013-02-05 23:10:00,
2013-02-05 17:12:00,26.7,22.2,29.86,West,265,8.0,9.0,83,0.00,,,0.00,VWS V14.01,2013-02-05 23:12:00,
2013-02-05 17:15:00,26.7,22.2,29.86,West,269,5.0,9.0,83,0.00,,,0.00,VWS V14.01,2013-02-05 23:15:00,
2013-02-05 17:17:00,26.7,22.2,29.86,West,261,6.0,8.0,83,0.00,,,0.00,VWS V14.01,2013-02-05 23:17:00,
2013-02-05 17:20:00,26.7,22.2,29.86,WNW,283,6.0,8.0,83,0.00,,,0.00,VWS V14.01,2013-02-05 23:20:00,
2013-02-05 17:22:00,26.7,22.5,29.87,West,268,7.0,9.0,84,0.00,,,0.00,VWS V14.01,2013-02-05 23:22:00,
2013-02-05 17:25:00,26.7,22.2,29.87,WSW,254,5.0,9.0,83,0.00,,,0.00,VWS V14.01,2013-02-05 23:25:00,
2013-02-05 17:27:00,26.7,22.2,29.87,West,269,6.0,8.0,83,0.00,,,0.00,VWS V14.01,2013-02-05 23:27:00,
2013-02-05 17:30:00,26.7,22.2,29.87,West,266,7.0,8.0,83,0.00,,,0.00,VWS V14.01,2013-02-05 23:30:00,
2013-02-05 17:32:00,26.7,22.2,29.88,West,267,2.0,8.0,83,0.00,,,0.00,VWS V14.01,2013-02-05 23:32:00,
2013-02-05 17:35:00,26.7,22.2,29.88,West,271,3.0,7.0,83,0.00,,,0.00,VWS V14.01,2013-02-05 23:35:00,
2013-02-05 17:37:00,26.8,22.3,29.88,West,259,7.0,8.0,83,0.00,,,0.00,VWS V14.01,2013-02-05 23:37:00,
2013-02-05 17:40:00,26.7,22.2,29.88,West,269,4.0,9.0,83,0.00,,,0.00,VWS V14.01,2013-02-05 23:40:00,
2013-02-05 17:42:00,26.8,22.3,29.88,West,270,6.0,8.0,83,0.00,,,0.00,VWS V14.01,2013-02-05 23:42:00,
2013-02-05 17:45:00,26.8,22.6,29.88,West,267,5.0,8.0,84,0.00,,,0.00,VWS V14.01,2013-02-05 23:45:00,
2013-02-05 17:47:00,26.8,22.6,29.88,WSW,242,2.0,9.0,84,0.00,,,0.00,VWS V14.01,2013-02-05 23:47:00,
2013-02-05 17:50:00,26.8,22.6,29.88,West,260,9.0,9.0,84,0.00,,,0.00,VWS V14.01,2013-02-05 23:50:00,
2013-02-05 17:52:00,26.9,22.7,29.89,West,271,3.0,9.0,84,0.00,,,0.00,VWS V14.01,2013-02-05 23:52:00,
2013-02-05 17:55:00,26.9,22.7,29.89,West,264,6.0,8.0,84,0.00,,,0.00,VWS V14.01,2013-02-05 23:55:00,
2013-02-05 17:57:00,26.9,22.7,29.89,WSW,254,6.0,8.0,84,0.00,,,0.00,VWS V14.01,2013-02-05 23:57:00,
2013-02-05 18:00:00,26.9,22.7,29.89,West,275,2.0,8.0,84,0.00,,,0.00,VWS V14.01,2013-02-06 00:00:00,
2013-02-05 18:02:00,27.0,22.8,29.89,West,276,2.0,6.0,84,0.00,,OVC023,0.00,VWS V14.01,2013-02-06 00:02:00,
2013-02-05 18:05:00,26.9,22.7,29.89,West,275,4.0,6.0,84,0.00,,,0.00,VWS V14.01,2013-02-06 00:05:00,
2013-02-05 18:08:00,27.0,22.8,29.89,West,274,0.0,5.0,84,0.00,,OVC023,0.00,VWS V14.01,2013-02-06 00:08:00,
2013-02-05 18:10:00,27.0,22.8,29.90,WNW,289,6.0,6.0,84,0.00,,,0.00,VWS V14.01,2013-02-06 00:10:00,
2013-02-05 18:13:00,27.0,22.8,29.90,WNW,296,6.0,6.0,84,0.00,,OVC023,0.00,VWS V14.01,2013-02-06 00:13:00,
2013-02-05 18:15:00,27.0,22.8,29.90,WNW,296,1.0,6.0,84,0.00,,,0.00,VWS V14.01,2013-02-06 00:15:00,
2013-02-05 18:18:00,27.0,22.8,29.90,WNW,288,4.0,5.0,84,0.00,,OVC023,0.00,VWS V14.01,2013-02-06 00:18:00,
2013-02-05 18:20:00,27.0,22.8,29.90,West,271,1.0,5.0,84,0.00,,,0.00,VWS V14.01,2013-02-06 00:20:00,
2013-02-05 18:23:00,27.0,22.8,29.91,West,278,3.0,7.0,84,0.00,,OVC023,0.00,VWS V14.01,2013-02-06 00:23:00,
2013-02-05 18:25:00,27.0,22.8,29.91,WNW,296,1.0,7.0,84,0.00,,,0.00,VWS V14.01,2013-02-06 00:25:00,
2013-02-05 18:28:00,27.1,22.9,29.91,WNW,283,0.0,8.0,84,0.00,,OVC023,0.00,VWS V14.01,2013-02-06 00:28:00,
2013-02-05 18:30:00,27.1,22.9,29.91,WNW,287,0.0,8.0,84,0.00,,,0.00,VWS V14.01,2013-02-06 00:30:00,
2013-02-05 18:33:00,27.2,23.0,29.91,WNW,303,2.0,7.0,84,0.00,,OVC023,0.00,VWS V14.01,2013-02-06 00:33:00,
2013-02-05 18:35:00,27.1,22.9,29.91,NW,304,0.0,7.0,84,0.00,,,0.00,VWS V14.01,2013-02-06 00:35:00,
2013-02-05 18:38:00,27.1,22.9,29.92,NW,320,4.0,8.0,84,0.00,,OVC023,0.00,VWS V14.01,2013-02-06 00:38:00,
2013-02-05 18:40:00,27.1,22.9,29.91,NW,320,3.0,8.0,84,0.00,,,0.00,VWS V14.01,2013-02-06 00:40:00,
2013-02-05 18:43:00,27.1,22.9,29.92,NW,313,11.0,13.0,84,0.00,,OVC023,0.00,VWS V14.01,2013-02-06 00:43:00,
2013-02-05 18:45:00,27.0,22.5,29.92,NW,314,5.0,13.0,83,0.00,,,0.00,VWS V14.01,2013-02-06 00:45:00,
2013-02-05 18:48:00,27.0,22.2,29.93,NW,307,7.0,13.0,82,0.00,,OVC023,0.00,VWS V14.01,2013-02-06 00:48:00,
2013-02-05 18:50:00,27.0,22.2,29.93,NW,319,0.0,13.0,82,0.00,,,0.00,VWS V14.01,2013-02-06 00:50:00,
2013-02-05 18:53:00,27.0,21.7,29.93,NNW,338,10.0,15.0,80,0.00,,OVC023,0.00,VWS V14.01,2013-02-06 00:53:00,
2013-02-05 18:55:00,27.0,21.7,29.93,NW,306,10.0,15.0,80,0.00,,,0.00,VWS V14.01,2013-02-06 00:55:00,
2013-02-05 18:58:00,27.0,21.7,29.93,West,272,2.0,15.0,80,0.00,,OVC023,0.00,VWS V14.01,2013-02-06 00:58:00,
2013-02-05 19:00:00,27.0,21.7,29.93,NW,325,8.0,13.0,80,0.00,,,0.00,VWS V14.01,2013-02-06 01:00:00,
2013-02-05 19:04:00,27.0,21.4,29.93,NW,309,3.0,13.0,79,0.00,,OVC023,0.00,VWS V14.01,2013-02-06 01:04:00,
2013-02-05 19:05:00,27.0,21.4,29.93,NW,311,3.0,13.0,79,0.00,,,0.00,VWS V14.01,2013-02-06 01:05:00,
2013-02-05 19:09:00,26.9,21.3,29.94,NNW,331,2.0,13.0,79,0.00,,OVC023,0.00,VWS V14.01,2013-02-06 01:09:00,
2013-02-05 19:10:00,26.9,21.3,29.94,NW,304,4.0,13.0,79,0.00,,,0.00,VWS V14.01,2013-02-06 01:10:00,
2013-02-05 19:14:00,26.9,21.3,29.94,North,11,3.0,10.0,79,0.00,,OVC023,0.00,VWS V14.01,2013-02-06 01:14:00,
2013-02-05 19:15:00,26.8,21.2,29.94,NNW,333,6.0,11.0,79,0.00,,,0.00,VWS V14.01,2013-02-06 01:15:00,
2013-02-05 19:19:00,26.5,20.9,29.94,NNW,348,8.0,14.0,79,0.00,,OVC023,0.00,VWS V14.01,2013-02-06 01:19:00,
2013-02-05 19:20:00,26.4,20.8,29.94,NW,321,10.0,14.0,79,0.00,,,0.00,VWS V14.01,2013-02-06 01:20:00,
2013-02-05 19:24:00,26.2,20.6,29.94,NW,306,6.0,12.0,79,0.00,,OVC023,0.00,VWS V14.01,2013-02-06 01:24:00,
2013-02-05 19:25:00,26.2,20.6,29.94,NNW,329,5.0,12.0,79,0.00,,,0.00,VWS V14.01,2013-02-06 01:25:00,
2013-02-05 19:29:00,26.0,20.4,29.94,WNW,302,6.0,15.0,79,0.00,,OVC023,0.00,VWS V14.01,2013-02-06 01:29:00,
2013-02-05 19:30:00,26.0,20.4,29.94,NW,320,8.0,15.0,79,0.00,,,0.00,VWS V14.01,2013-02-06 01:30:00,
2013-02-05 19:34:00,26.0,20.4,29.95,NNW,328,3.0,14.0,79,0.00,,OVC023,0.00,VWS V14.01,2013-02-06 01:34:00,
2013-02-05 19:35:00,26.0,20.4,29.95,NNW,342,7.0,14.0,79,0.00,,,0.00,VWS V14.01,2013-02-06 01:35:00,
2013-02-05 19:39:00,25.9,20.3,29.95,NW,307,8.0,15.0,79,0.00,,OVC023,0.00,VWS V14.01,2013-02-06 01:39:00,
2013-02-05 19:40:00,25.9,20.3,29.95,NW,307,8.0,15.0,79,0.00,,,0.00,VWS V14.01,2013-02-06 01:40:00,
2013-02-05 19:44:00,25.7,20.1,29.95,NNW,331,9.0,16.0,79,0.00,,OVC023,0.00,VWS V14.01,2013-02-06 01:44:00,
2013-02-05 19:45:00,25.7,20.1,29.95,NNW,333,8.0,16.0,79,0.00,,,0.00,VWS V14.01,2013-02-06 01:45:00,
2013-02-05 19:49:00,25.6,20.0,29.95,NW,323,4.0,16.0,79,0.00,,OVC023,0.00,VWS V14.01,2013-02-06 01:49:00,
2013-02-05 19:50:00,25.7,20.1,29.95,North,9,1.0,16.0,79,0.00,,,0.00,VWS V14.01,2013-02-06 01:50:00,
2013-02-05 19:54:00,25.6,20.0,29.96,NW,317,6.0,12.0,79,0.00,,OVC023,0.00,VWS V14.01,2013-02-06 01:54:00,
2013-02-05 19:55:00,25.6,20.0,29.96,NNW,333,0.0,12.0,79,0.00,,,0.00,VWS V14.01,2013-02-06 01:55:00,
2013-02-05 20:00:00,25.5,19.6,29.97,NW,316,11.0,14.0,78,0.00,,OVC023,0.00,VWS V14.01,2013-02-06 02:00:00,
2013-02-05 20:05:00,25.4,19.5,29.97,NNE,28,1.0,14.0,78,0.00,,OVC025,0.00,VWS V14.01,2013-02-06 02:05:00,
2013-02-05 20:10:00,25.3,19.4,29.97,NW,317,10.0,12.0,78,0.00,,OVC025,0.00,VWS V14.01,2013-02-06 02:10:00,
2013-02-05 20:15:00,25.2,19.0,29.98,NW,311,1.0,14.0,77,0.00,,OVC025,0.00,VWS V14.01,2013-02-06 02:15:00,
2013-02-05 20:20:00,25.2,19.0,29.98,North,360,8.0,12.0,77,0.00,,OVC025,0.00,VWS V14.01,2013-02-06 02:20:00,
2013-02-05 20:25:00,25.1,18.6,29.99,NW,313,6.0,15.0,76,0.00,,OVC025,0.00,VWS V14.01,2013-02-06 02:25:00,
2013-02-05 20:30:00,25.0,18.5,29.99,WNW,296,6.0,13.0,76,0.00,,OVC025,0.00,VWS V14.01,2013-02-06 02:30:00,
2013-02-05 20:35:00,24.9,18.4,29.99,NW,320,8.0,12.0,76,0.00,,OVC025,0.00,VWS V14.01,2013-02-06 02:35:00,
2013-02-05 20:40:00,24.8,18.3,29.99,NW,311,11.0,15.0,76,0.00,,OVC025,0.00,VWS V14.01,2013-02-06 02:40:00,
2013-02-05 20:45:00,24.7,18.2,30.00,NW,305,6.0,14.0,76,0.00,,OVC025,0.00,VWS V14.01,2013-02-06 02:45:00,
2013-02-05 20:50:00,24.7,18.2,30.00,WNW,292,7.0,12.0,76,0.00,,OVC025,0.00,VWS V14.01,2013-02-06 02:50:00,
2013-02-05 20:55:00,24.5,17.7,30.00,NW,326,10.0,16.0,75,0.00,,OVC025,0.00,VWS V14.01,2013-02-06 02:55:00,
2013-02-05 21:00:00,24.4,17.0,30.00,NW,315,4.0,13.0,73,0.00,,OVC025,0.00,VWS V14.01,2013-02-06 03:00:00,
2013-02-05 21:05:00,24.3,16.9,30.01,NW,313,10.0,15.0,73,0.00,,,0.00,VWS V14.01,2013-02-06 03:05:00,
2013-02-05 21:06:00,24.3,16.9,30.01,NW,304,11.0,15.0,73,0.00,,OVC025,0.00,VWS V14.01,2013-02-06 03:06:00,
2013-02-05 21:10:00,24.2,16.8,30.01,NW,313,9.0,15.0,73,0.00,,,0.00,VWS V14.01,2013-02-06 03:10:00,
2013-02-05 21:11:00,24.3,16.9,30.01,NW,317,10.0,15.0,73,0.00,,OVC025,0.00,VWS V14.01,2013-02-06 03:11:00,
2013-02-05 21:15:00,24.2,16.8,30.01,NNW,329,4.0,16.0,73,0.00,,,0.00,VWS V14.01,2013-02-06 03:15:00,
2013-02-05 21:16:00,24.2,16.8,30.01,NNW,335,6.0,16.0,73,0.00,,OVC025,0.00,VWS V14.01,2013-02-06 03:16:00,
2013-02-05 21:20:00,24.2,16.8,30.01,NW,304,8.0,18.0,73,0.00,,,0.00,VWS V14.01,2013-02-06 03:20:00,
2013-02-05 21:21:00,24.2,16.8,30.01,NW,309,15.0,18.0,73,0.00,,OVC025,0.00,VWS V14.01,2013-02-06 03:21:00,
2013-02-05 21:25:00,24.1,16.7,30.01,NW,305,12.0,15.0,73,0.00,,,0.00,VWS V14.01,2013-02-06 03:25:00,
2013-02-05 21:26:00,24.1,16.4,30.01,NW,319,11.0,15.0,72,0.00,,OVC025,0.00,VWS V14.01,2013-02-06 03:26:00,
2013-02-05 21:30:00,24.1,16.4,30.01,NNW,333,12.0,19.0,72,0.00,,,0.00,VWS V14.01,2013-02-06 03:30:00,
2013-02-05 21:31:00,24.1,16.1,30.02,NNE,12,8.0,16.0,71,0.00,,OVC025,0.00,VWS V14.01,2013-02-06 03:31:00,
2013-02-05 21:35:00,24.1,16.1,30.02,WNW,296,0.0,16.0,71,0.00,,,0.00,VWS V14.01,2013-02-06 03:35:00,
2013-02-05 21:36:00,24.0,16.0,30.01,NW,324,5.0,16.0,71,0.00,,OVC025,0.00,VWS V14.01,2013-02-06 03:36:00,
2013-02-05 21:40:00,24.0,16.0,30.01,NNW,336,6.0,16.0,71,0.00,,,0.00,VWS V14.01,2013-02-06 03:40:00,
2013-02-05 21:41:00,23.9,15.6,30.01,NNW,329,10.0,12.0,70,0.00,,OVC025,0.00,VWS V14.01,2013-02-06 03:41:00,
2013-02-05 21:45:00,23.9,15.6,30.01,NW,319,6.0,16.0,70,0.00,,,0.00,VWS V14.01,2013-02-06 03:45:00,
2013-02-05 21:46:00,23.9,15.6,30.01,NW,324,11.0,16.0,70,0.00,,OVC025,0.00,VWS V14.01,2013-02-06 03:46:00,
2013-02-05 21:50:00,23.8,15.5,30.01,WNW,300,7.0,12.0,70,0.00,,,0.00,VWS V14.01,2013-02-06 03:50:00,
2013-02-05 21:51:00,23.8,15.5,30.02,NNW,331,8.0,13.0,70,0.00,,OVC025,0.00,VWS V14.01,2013-02-06 03:51:00,
2013-02-05 21:55:00,23.8,15.1,30.02,WNW,299,8.0,15.0,69,0.00,,,0.00,VWS V14.01,2013-02-06 03:55:00,
2013-02-05 21:56:00,23.8,15.1,30.02,NNW,328,2.0,15.0,69,0.00,,OVC025,0.00,VWS V14.01,2013-02-06 03:56:00,
2013-02-05 22:00:00,23.8,15.1,30.02,NW,316,12.0,13.0,69,0.00,,,0.00,VWS V14.01,2013-02-06 04:00:00,
2013-02-05 22:01:00,23.7,15.0,30.02,NW,325,7.0,14.0,69,0.00,,OVC023,0.00,VWS V14.01,2013-02-06 04:01:00,
2013-02-05 22:05:00,23.7,15.0,30.02,NNW,335,3.0,11.0,69,0.00,,,0.00,VWS V14.01,2013-02-06 04:05:00,
2013-02-05 22:06:00,23.7,15.0,30.02,NW,308,3.0,12.0,69,0.00,,OVC023,0.00,VWS V14.01,2013-02-06 04:06:00,
2013-02-05 22:10:00,23.7,15.0,30.03,NW,306,8.0,12.0,69,0.00,,,0.00,VWS V14.01,2013-02-06 04:10:00,
2013-02-05 22:12:00,23.6,15.3,30.03,WNW,296,2.0,11.0,70,0.00,,OVC023,0.00,VWS V14.01,2013-02-06 04:12:00,
2013-02-05 22:15:00,23.6,15.3,30.03,NW,306,5.0,10.0,70,0.00,,,0.00,VWS V14.01,2013-02-06 04:15:00,
2013-02-05 22:17:00,23.6,15.3,30.03,NW,313,8.0,10.0,70,0.00,,OVC023,0.00,VWS V14.01,2013-02-06 04:17:00,
2013-02-05 22:20:00,23.6,15.3,30.03,NW,305,7.0,10.0,70,0.00,,,0.00,VWS V14.01,2013-02-06 04:20:00,
2013-02-05 22:22:00,23.6,15.3,30.03,NW,309,3.0,10.0,70,0.00,,OVC023,0.00,VWS V14.01,2013-02-06 04:22:00,
2013-02-05 22:25:00,23.6,15.3,30.03,NW,319,9.0,14.0,70,0.00,,,0.00,VWS V14.01,2013-02-06 04:25:00,
2013-02-05 22:27:00,23.6,15.3,30.03,NW,306,6.0,14.0,70,0.00,,OVC023,0.00,VWS V14.01,2013-02-06 04:27:00,
2013-02-05 22:30:00,23.6,15.3,30.03,NNW,330,8.0,10.0,70,0.00,,,0.00,VWS V14.01,2013-02-06 04:30:00,
2013-02-05 22:32:00,23.6,15.3,30.03,NNW,329,4.0,10.0,70,0.00,,OVC023,0.00,VWS V14.01,2013-02-06 04:32:00,
2013-02-05 22:35:00,23.5,15.2,30.03,NW,316,8.0,13.0,70,0.00,,,0.00,VWS V14.01,2013-02-06 04:35:00,
2013-02-05 22:37:00,23.5,15.2,30.04,NNW,340,7.0,13.0,70,0.00,,OVC023,0.00,VWS V14.01,2013-02-06 04:37:00,
2013-02-05 22:40:00,23.5,15.2,30.04,NW,319,7.0,12.0,70,0.00,,,0.00,VWS V14.01,2013-02-06 04:40:00,
2013-02-05 22:43:00,23.4,15.1,30.03,NW,322,5.0,11.0,70,0.00,,OVC023,0.00,VWS V14.01,2013-02-06 04:43:00,
2013-02-05 22:45:00,23.4,15.1,30.04,NNW,333,6.0,11.0,70,0.00,,,0.00,VWS V14.01,2013-02-06 04:45:00,
2013-02-05 22:48:00,23.3,15.0,30.04,NNW,332,7.0,10.0,70,0.00,,OVC023,0.00,VWS V14.01,2013-02-06 04:48:00,
2013-02-05 22:50:00,23.3,15.0,30.04,NW,324,8.0,9.0,70,0.00,,,0.00,VWS V14.01,2013-02-06 04:50:00,
2013-02-05 22:53:00,23.2,14.9,30.04,NW,321,0.0,10.0,70,0.00,,OVC023,0.00,VWS V14.01,2013-02-06 04:53:00,
2013-02-05 22:55:00,23.2,14.9,30.04,NNW,336,7.0,8.0,70,0.00,,,0.00,VWS V14.01,2013-02-06 04:55:00,
2013-02-05 22:58:00,23.0,14.7,30.04,NW,316,1.0,9.0,70,0.00,,OVC023,0.00,VWS V14.01,2013-02-06 04:58:00,
2013-02-05 23:00:00,22.9,14.6,30.04,NW,313,7.0,8.0,70,0.00,,OVC025,0.00,VWS V14.01,2013-02-06 05:00:00,
2013-02-05 23:02:00,22.8,14.5,30.04,NW,316,0.0,8.0,70,0.00,,OVC025,0.00,VWS V14.01,2013-02-06 05:02:00,
2013-02-05 23:04:00,22.7,14.4,30.04,NW,315,5.0,7.0,70,0.00,,OVC025,0.00,VWS V14.01,2013-02-06 05:04:00,
2013-02-05 23:05:00,22.7,14.4,30.04,NW,318,2.0,7.0,70,0.00,,,0.00,VWS V14.01,2013-02-06 05:05:00,
2013-02-05 23:08:00,22.6,14.3,30.05,NNW,333,6.0,9.0,70,0.00,,OVC025,0.00,VWS V14.01,2013-02-06 05:08:00,
2013-02-05 23:10:00,22.5,14.2,30.05,NW,317,2.0,9.0,70,0.00,,,0.00,VWS V14.01,2013-02-06 05:10:00,
2013-02-05 23:13:00,22.4,14.1,30.04,NW,322,2.0,8.0,70,0.00,,OVC025,0.00,VWS V14.01,2013-02-06 05:13:00,
2013-02-05 23:15:00,22.4,14.1,30.04,NW,304,2.0,8.0,70,0.00,,,0.00,VWS V14.01,2013-02-06 05:15:00,
2013-02-05 23:19:00,22.2,13.9,30.04,NW,309,2.0,6.0,70,0.00,,OVC025,0.00,VWS V14.01,2013-02-06 05:19:00,
2013-02-05 23:20:00,22.2,13.9,30.04,NW,309,0.0,6.0,70,0.00,,,0.00,VWS V14.01,2013-02-06 05:20:00,
2013-02-05 23:24:00,22.0,13.7,30.05,NW,311,0.0,2.0,70,0.00,,OVC025,0.00,VWS V14.01,2013-02-06 05:24:00,
2013-02-05 23:25:00,22.0,14.1,30.05,NW,311,0.0,2.0,71,0.00,,,0.00,VWS V14.01,2013-02-06 05:25:00,
2013-02-05 23:29:00,21.8,13.9,30.05,NW,311,0.0,2.0,71,0.00,,OVC025,0.00,VWS V14.01,2013-02-06 05:29:00,
2013-02-05 23:30:00,21.8,13.9,30.05,NW,311,0.0,2.0,71,0.00,,,0.00,VWS V14.01,2013-02-06 05:30:00,
2013-02-05 23:34:00,21.7,13.8,30.05,NW,311,0.0,0.0,71,0.00,,OVC025,0.00,VWS V14.01,2013-02-06 05:34:00,
2013-02-05 23:35:00,21.7,13.8,30.05,NW,311,0.0,0.0,71,0.00,,,0.00,VWS V14.01,2013-02-06 05:35:00,
2013-02-05 23:39:00,21.5,13.9,30.06,NW,311,0.0,1.0,72,0.00,,OVC025,0.00,VWS V14.01,2013-02-06 05:39:00,
2013-02-05 23:40:00,21.5,13.9,30.06,NW,311,0.0,1.0,72,0.00,,,0.00,VWS V14.01,2013-02-06 05:40:00,
2013-02-05 23:44:00,21.3,13.7,30.06,NW,311,0.0,0.0,72,0.00,,OVC025,0.00,VWS V14.01,2013-02-06 05:44:00,
2013-02-05 23:45:00,21.3,13.7,30.06,NW,311,0.0,0.0,72,0.00,,,0.00,VWS V14.01,2013-02-06 05:45:00,
2013-02-05 23:49:00,21.2,13.6,30.06,NW,311,0.0,0.0,72,0.00,,OVC025,0.00,VWS V14.01,2013-02-06 05:49:00,
2013-02-05 23:50:00,21.2,13.6,30.06,NW,311,0.0,0.0,72,0.00,,,0.00,VWS V14.01,2013-02-06 05:50:00,
2013-02-05 23:54:00,21.1,13.8,30.07,NW,311,0.0,0.0,73,0.00,,OVC025,0.00,VWS V14.01,2013-02-06 05:54:00,
2013-02-05 23:55:00,21.1,13.8,30.07,NW,311,0.0,0.0,73,0.00,,,0.00,VWS V14.01,2013-02-06 05:55:00,
2013-02-05 23:59:00,21.1,14.1,30.07,NW,311,0.0,0.0,74,0.00,,OVC025,0.00,VWS V14.01,2013-02-06 05:59:00,